sensor_id;sensor_type;location;lat;lon;timestamp;pressure;altitude;pressure_sealevel;temperature;humidity
50133;BME280;46340;53.148;8.204;2022-10-26T00:00:51;101509.69;;;8.56;100.00
50133;BME280;46340;53.148;8.204;2022-10-26T00:03:17;101520.41;;;8.58;100.00
50133;BME280;46340;53.148;8.204;2022-10-26T00:05:43;101511.69;;;8.64;100.00
50133;BME280;46340;53.148;8.204;2022-10-26T00:08:09;101513.66;;;8.64;100.00
50133;BME280;46340;53.148;8.204;2022-10-26T00:10:34;101515.25;;;8.65;100.00
50133;BME280;46340;53.148;8.204;2022-10-26T00:13:02;101520.44;;;8.66;100.00
50133;BME280;46340;53.148;8.204;2022-10-26T00:15:28;101509.44;;;8.66;100.00
50133;BME280;46340;53.148;8.204;2022-10-26T00:17:53;101509.00;;;8.73;100.00
50133;BME280;46340;53.148;8.204;2022-10-26T00:20:19;101513.06;;;8.76;100.00
50133;BME280;46340;53.148;8.204;2022-10-26T00:22:44;101509.81;;;8.74;100.00
50133;BME280;46340;53.148;8.204;2022-10-26T00:25:09;101511.75;;;8.73;100.00
50133;BME280;46340;53.148;8.204;2022-10-26T00:27:35;101518.06;;;8.74;100.00
50133;BME280;46340;53.148;8.204;2022-10-26T00:30:01;101513.38;;;8.74;100.00
50133;BME280;46340;53.148;8.204;2022-10-26T00:32:27;101515.00;;;8.75;100.00
50133;BME280;46340;53.148;8.204;2022-10-26T00:34:52;101512.56;;;8.74;100.00
50133;BME280;46340;53.148;8.204;2022-10-26T00:37:18;101519.22;;;8.73;100.00
50133;BME280;46340;53.148;8.204;2022-10-26T00:39:43;101515.53;;;8.77;100.00
50133;BME280;46340;53.148;8.204;2022-10-26T00:42:12;101522.13;;;8.76;100.00
50133;BME280;46340;53.148;8.204;2022-10-26T00:47:11;101518.91;;;8.74;100.00
50133;BME280;46340;53.148;8.204;2022-10-26T00:49:40;101522.44;;;8.75;100.00
50133;BME280;46340;53.148;8.204;2022-10-26T00:52:10;101519.22;;;8.73;100.00
50133;BME280;46340;53.148;8.204;2022-10-26T00:54:36;101523.72;;;8.69;100.00
50133;BME280;46340;53.148;8.204;2022-10-26T00:57:02;101522.09;;;8.68;100.00
50133;BME280;46340;53.148;8.204;2022-10-26T00:59:27;101526.41;;;8.60;100.00
50133;BME280;46340;53.148;8.204;2022-10-26T01:01:52;101525.22;;;8.52;100.00
50133;BME280;46340;53.148;8.204;2022-10-26T01:04:19;101518.19;;;8.46;100.00
50133;BME280;46340;53.148;8.204;2022-10-26T01:06:44;101525.16;;;8.43;100.00
50133;BME280;46340;53.148;8.204;2022-10-26T01:09:11;101515.25;;;8.42;100.00
50133;BME280;46340;53.148;8.204;2022-10-26T01:11:37;101515.03;;;8.39;100.00
50133;BME280;46340;53.148;8.204;2022-10-26T01:14:03;101516.19;;;8.38;100.00
50133;BME280;46340;53.148;8.204;2022-10-26T01:24:53;101508.69;;;8.29;100.00
50133;BME280;46340;53.148;8.204;2022-10-26T01:27:37;101506.91;;;8.34;100.00
50133;BME280;46340;53.148;8.204;2022-10-26T01:30:21;101505.31;;;8.33;100.00
50133;BME280;46340;53.148;8.204;2022-10-26T01:35:37;101500.72;;;8.28;100.00
50133;BME280;46340;53.148;8.204;2022-10-26T01:38:16;101499.75;;;8.24;100.00
50133;BME280;46340;53.148;8.204;2022-10-26T01:43:22;101487.59;;;8.25;100.00
50133;BME280;46340;53.148;8.204;2022-10-26T01:45:51;101483.84;;;8.21;100.00
50133;BME280;46340;53.148;8.204;2022-10-26T01:48:19;101482.03;;;8.16;100.00
50133;BME280;46340;53.148;8.204;2022-10-26T01:50:48;101483.97;;;8.16;100.00
50133;BME280;46340;53.148;8.204;2022-10-26T01:53:17;101485.50;;;8.22;100.00
50133;BME280;46340;53.148;8.204;2022-10-26T01:55:50;101473.84;;;8.25;100.00
50133;BME280;46340;53.148;8.204;2022-10-26T01:58:37;101474.03;;;8.28;100.00
50133;BME280;46340;53.148;8.204;2022-10-26T02:06:50;101479.34;;;8.47;100.00
50133;BME280;46340;53.148;8.204;2022-10-26T02:12:28;101470.16;;;8.52;100.00
50133;BME280;46340;53.148;8.204;2022-10-26T02:14:57;101458.66;;;8.50;100.00
50133;BME280;46340;53.148;8.204;2022-10-26T02:17:37;101459.28;;;8.47;100.00
50133;BME280;46340;53.148;8.204;2022-10-26T02:20:12;101459.16;;;8.52;100.00
50133;BME280;46340;53.148;8.204;2022-10-26T02:22:46;101455.97;;;8.59;100.00
50133;BME280;46340;53.148;8.204;2022-10-26T02:25:27;101452.28;;;8.63;100.00
50133;BME280;46340;53.148;8.204;2022-10-26T02:27:57;101454.69;;;8.65;100.00
50133;BME280;46340;53.148;8.204;2022-10-26T02:30:26;101445.81;;;8.68;100.00
50133;BME280;46340;53.148;8.204;2022-10-26T02:32:53;101449.38;;;8.69;100.00
50133;BME280;46340;53.148;8.204;2022-10-26T02:35:29;101445.00;;;8.68;100.00
50133;BME280;46340;53.148;8.204;2022-10-26T02:37:59;101446.28;;;8.70;100.00
50133;BME280;46340;53.148;8.204;2022-10-26T02:40:28;101439.97;;;8.70;100.00
50133;BME280;46340;53.148;8.204;2022-10-26T02:42:57;101433.38;;;8.71;100.00
50133;BME280;46340;53.148;8.204;2022-10-26T02:45:27;101427.03;;;8.70;100.00
50133;BME280;46340;53.148;8.204;2022-10-26T02:47:58;101428.66;;;8.71;100.00
50133;BME280;46340;53.148;8.204;2022-10-26T02:50:25;101431.41;;;8.71;100.00
50133;BME280;46340;53.148;8.204;2022-10-26T02:53:03;101425.72;;;8.68;100.00
50133;BME280;46340;53.148;8.204;2022-10-26T02:55:44;101420.22;;;8.68;100.00
50133;BME280;46340;53.148;8.204;2022-10-26T02:58:15;101419.59;;;8.71;100.00
50133;BME280;46340;53.148;8.204;2022-10-26T03:00:51;101420.56;;;8.75;100.00
50133;BME280;46340;53.148;8.204;2022-10-26T03:03:17;101422.69;;;8.78;100.00
50133;BME280;46340;53.148;8.204;2022-10-26T03:05:43;101414.94;;;8.80;100.00
50133;BME280;46340;53.148;8.204;2022-10-26T03:08:09;101414.78;;;8.85;100.00
50133;BME280;46340;53.148;8.204;2022-10-26T03:10:35;101422.25;;;8.84;100.00
50133;BME280;46340;53.148;8.204;2022-10-26T03:13:05;101419.19;;;8.86;100.00
50133;BME280;46340;53.148;8.204;2022-10-26T03:15:30;101421.63;;;8.88;100.00
50133;BME280;46340;53.148;8.204;2022-10-26T03:17:55;101423.84;;;8.85;100.00
50133;BME280;46340;53.148;8.204;2022-10-26T03:20:21;101417.06;;;8.83;100.00
50133;BME280;46340;53.148;8.204;2022-10-26T03:22:46;101415.41;;;8.82;100.00
50133;BME280;46340;53.148;8.204;2022-10-26T03:25:12;101421.56;;;8.79;100.00
50133;BME280;46340;53.148;8.204;2022-10-26T03:27:39;101412.97;;;8.80;100.00
50133;BME280;46340;53.148;8.204;2022-10-26T03:30:05;101417.69;;;8.80;100.00
50133;BME280;46340;53.148;8.204;2022-10-26T03:32:30;101411.53;;;8.83;100.00
50133;BME280;46340;53.148;8.204;2022-10-26T03:34:56;101412.66;;;8.82;100.00
50133;BME280;46340;53.148;8.204;2022-10-26T03:37:21;101413.50;;;8.82;100.00
50133;BME280;46340;53.148;8.204;2022-10-26T03:39:46;101418.16;;;8.82;100.00
50133;BME280;46340;53.148;8.204;2022-10-26T03:42:11;101413.50;;;8.82;100.00
50133;BME280;46340;53.148;8.204;2022-10-26T03:44:37;101422.38;;;8.79;100.00
50133;BME280;46340;53.148;8.204;2022-10-26T03:47:02;101419.31;;;8.81;100.00
50133;BME280;46340;53.148;8.204;2022-10-26T03:49:27;101422.72;;;8.87;100.00
50133;BME280;46340;53.148;8.204;2022-10-26T03:51:53;101430.19;;;8.86;100.00
50133;BME280;46340;53.148;8.204;2022-10-26T03:54:18;101426.59;;;8.85;100.00
50133;BME280;46340;53.148;8.204;2022-10-26T03:56:43;101421.75;;;8.82;100.00
50133;BME280;46340;53.148;8.204;2022-10-26T03:59:08;101422.25;;;8.84;100.00
50133;BME280;46340;53.148;8.204;2022-10-26T04:01:34;101420.13;;;8.81;100.00
50133;BME280;46340;53.148;8.204;2022-10-26T04:03:59;101418.47;;;8.80;100.00
50133;BME280;46340;53.148;8.204;2022-10-26T04:06:25;101414.13;;;8.79;100.00
50133;BME280;46340;53.148;8.204;2022-10-26T04:08:50;101412.81;;;8.77;100.00
50133;BME280;46340;53.148;8.204;2022-10-26T04:11:17;101419.63;;;8.79;100.00
50133;BME280;46340;53.148;8.204;2022-10-26T04:13:42;101417.19;;;8.78;100.00
50133;BME280;46340;53.148;8.204;2022-10-26T04:16:08;101418.63;;;8.75;100.00
50133;BME280;46340;53.148;8.204;2022-10-26T04:18:33;101414.09;;;8.71;100.00
50133;BME280;46340;53.148;8.204;2022-10-26T04:21:01;101422.66;;;8.69;100.00
50133;BME280;46340;53.148;8.204;2022-10-26T04:23:26;101419.72;;;8.65;100.00
50133;BME280;46340;53.148;8.204;2022-10-26T04:25:52;101423.59;;;8.64;100.00
50133;BME280;46340;53.148;8.204;2022-10-26T04:28:17;101426.34;;;8.64;100.00
50133;BME280;46340;53.148;8.204;2022-10-26T04:30:42;101426.66;;;8.63;100.00
50133;BME280;46340;53.148;8.204;2022-10-26T04:33:07;101429.41;;;8.63;100.00
50133;BME280;46340;53.148;8.204;2022-10-26T04:35:33;101426.66;;;8.63;100.00
50133;BME280;46340;53.148;8.204;2022-10-26T04:38:03;101424.88;;;8.58;100.00
50133;BME280;46340;53.148;8.204;2022-10-26T04:40:29;101427.63;;;8.58;100.00
50133;BME280;46340;53.148;8.204;2022-10-26T04:42:56;101423.13;;;8.62;100.00
50133;BME280;46340;53.148;8.204;2022-10-26T04:45:22;101413.22;;;8.61;100.00
50133;BME280;46340;53.148;8.204;2022-10-26T04:47:47;101413.03;;;8.58;100.00
50133;BME280;46340;53.148;8.204;2022-10-26T04:50:23;101413.88;;;8.58;100.00
50133;BME280;46340;53.148;8.204;2022-10-26T04:52:51;101414.31;;;8.52;100.00
50133;BME280;46340;53.148;8.204;2022-10-26T04:55:17;101410.94;;;8.55;100.00
50133;BME280;46340;53.148;8.204;2022-10-26T04:57:43;101410.09;;;8.54;100.00
50133;BME280;46340;53.148;8.204;2022-10-26T05:00:09;101407.97;;;8.51;100.00
50133;BME280;46340;53.148;8.204;2022-10-26T05:02:35;101400.72;;;8.55;100.00
50133;BME280;46340;53.148;8.204;2022-10-26T05:05:00;101406.56;;;8.54;100.00
50133;BME280;46340;53.148;8.204;2022-10-26T05:07:25;101406.88;;;8.52;100.00
50133;BME280;46340;53.148;8.204;2022-10-26T05:09:50;101407.81;;;8.47;100.00
50133;BME280;46340;53.148;8.204;2022-10-26T05:12:16;101410.88;;;8.46;100.00
50133;BME280;46340;53.148;8.204;2022-10-26T05:14:41;101406.81;;;8.43;100.00
50133;BME280;46340;53.148;8.204;2022-10-26T05:17:06;101412.31;;;8.43;100.00
50133;BME280;46340;53.148;8.204;2022-10-26T05:19:31;101408.22;;;8.41;100.00
50133;BME280;46340;53.148;8.204;2022-10-26T05:21:57;101406.44;;;8.36;100.00
50133;BME280;46340;53.148;8.204;2022-10-26T05:24:22;101403.50;;;8.33;100.00
50133;BME280;46340;53.148;8.204;2022-10-26T05:26:47;101400.56;;;8.29;100.00
50133;BME280;46340;53.148;8.204;2022-10-26T05:29:12;101397.44;;;8.22;100.00
50133;BME280;46340;53.148;8.204;2022-10-26T05:31:38;101399.50;;;8.16;100.00
50133;BME280;46340;53.148;8.204;2022-10-26T05:34:03;101400.91;;;8.05;100.00
50133;BME280;46340;53.148;8.204;2022-10-26T05:36:28;101396.94;;;7.97;100.00
50133;BME280;46340;53.148;8.204;2022-10-26T05:38:57;101401.75;;;7.91;100.00
50133;BME280;46340;53.148;8.204;2022-10-26T05:41:23;101398.03;;;7.87;100.00
50133;BME280;46340;53.148;8.204;2022-10-26T05:43:49;101397.00;;;7.83;100.00
50133;BME280;46340;53.148;8.204;2022-10-26T05:46:14;101402.50;;;7.83;100.00
50133;BME280;46340;53.148;8.204;2022-10-26T05:48:39;101402.91;;;7.77;100.00
50133;BME280;46340;53.148;8.204;2022-10-26T05:51:05;101406.94;;;7.70;100.00
50133;BME280;46340;53.148;8.204;2022-10-26T05:53:30;101404.19;;;7.70;100.00
50133;BME280;46340;53.148;8.204;2022-10-26T05:55:55;101410.78;;;7.69;100.00
50133;BME280;46340;53.148;8.204;2022-10-26T05:58:21;101413.34;;;7.66;100.00
50133;BME280;46340;53.148;8.204;2022-10-26T06:03:49;101435.88;;;7.54;100.00
50133;BME280;46340;53.148;8.204;2022-10-26T06:06:26;101424.19;;;7.48;100.00
50133;BME280;46340;53.148;8.204;2022-10-26T06:09:01;101440.78;;;7.43;100.00
50133;BME280;46340;53.148;8.204;2022-10-26T06:11:27;101424.09;;;7.40;100.00
50133;BME280;46340;53.148;8.204;2022-10-26T06:13:52;101424.41;;;7.38;100.00
50133;BME280;46340;53.148;8.204;2022-10-26T06:16:33;101441.69;;;7.39;100.00
50133;BME280;46340;53.148;8.204;2022-10-26T06:19:09;101432.44;;;7.34;100.00
50133;BME280;46340;53.148;8.204;2022-10-26T06:27:41;101440.59;;;7.40;100.00
50133;BME280;46340;53.148;8.204;2022-10-26T06:30:16;101431.53;;;7.39;100.00
50133;BME280;46340;53.148;8.204;2022-10-26T06:32:44;101433.34;;;7.44;100.00
50133;BME280;46340;53.148;8.204;2022-10-26T06:37:39;101441.69;;;7.52;100.00
50133;BME280;46340;53.148;8.204;2022-10-26T06:40:08;101441.75;;;7.61;100.00
50133;BME280;46340;53.148;8.204;2022-10-26T06:42:37;101445.22;;;7.67;100.00
50133;BME280;46340;53.148;8.204;2022-10-26T06:45:02;101448.34;;;7.74;100.00
50133;BME280;46340;53.148;8.204;2022-10-26T06:47:30;101448.31;;;7.88;100.00
50133;BME280;46340;53.148;8.204;2022-10-26T06:50:10;101447.06;;;7.94;100.00
50133;BME280;46340;53.148;8.204;2022-10-26T06:53:00;101444.19;;;7.99;100.00
50133;BME280;46340;53.148;8.204;2022-10-26T06:55:34;101445.09;;;8.08;100.00
50133;BME280;46340;53.148;8.204;2022-10-26T06:58:04;101445.94;;;8.18;100.00
50133;BME280;46340;53.148;8.204;2022-10-26T07:00:35;101434.69;;;8.28;100.00
50133;BME280;46340;53.148;8.204;2022-10-26T07:03:02;101451.25;;;8.37;100.00
50133;BME280;46340;53.148;8.204;2022-10-26T07:05:27;101443.59;;;8.47;100.00
50133;BME280;46340;53.148;8.204;2022-10-26T07:07:53;101440.88;;;8.56;100.00
50133;BME280;46340;53.148;8.204;2022-10-26T07:10:18;101438.69;;;8.67;100.00
50133;BME280;46340;53.148;8.204;2022-10-26T07:12:43;101437.28;;;8.78;100.00
50133;BME280;46340;53.148;8.204;2022-10-26T07:15:09;101448.47;;;8.82;100.00
50133;BME280;46340;53.148;8.204;2022-10-26T07:17:41;101449.78;;;8.84;100.00
50133;BME280;46340;53.148;8.204;2022-10-26T07:20:08;101437.66;;;8.94;100.00
50133;BME280;46340;53.148;8.204;2022-10-26T07:22:34;101437.03;;;8.97;100.00
50133;BME280;46340;53.148;8.204;2022-10-26T07:24:59;101439.81;;;9.06;100.00
50133;BME280;46340;53.148;8.204;2022-10-26T07:27:24;101437.22;;;9.10;100.00
50133;BME280;46340;53.148;8.204;2022-10-26T07:29:50;101441.44;;;9.07;100.00
50133;BME280;46340;53.148;8.204;2022-10-26T07:32:15;101441.94;;;9.09;100.00
50133;BME280;46340;53.148;8.204;2022-10-26T07:34:40;101428.97;;;9.10;100.00
50133;BME280;46340;53.148;8.204;2022-10-26T07:37:05;101428.81;;;9.15;100.00
50133;BME280;46340;53.148;8.204;2022-10-26T07:39:31;101436.78;;;9.16;100.00
50133;BME280;46340;53.148;8.204;2022-10-26T07:41:56;101435.50;;;9.22;100.00
50133;BME280;46340;53.148;8.204;2022-10-26T07:44:22;101438.75;;;9.33;100.00
50133;BME280;46340;53.148;8.204;2022-10-26T07:46:47;101440.56;;;9.29;100.00
50133;BME280;46340;53.148;8.204;2022-10-26T07:49:14;101438.44;;;9.35;100.00
50133;BME280;46340;53.148;8.204;2022-10-26T07:51:39;101433.41;;;9.37;100.00
50133;BME280;46340;53.148;8.204;2022-10-26T07:54:04;101436.50;;;9.44;100.00
50133;BME280;46340;53.148;8.204;2022-10-26T07:56:29;101430.03;;;9.49;100.00
50133;BME280;46340;53.148;8.204;2022-10-26T07:58:55;101427.59;;;9.47;100.00
50133;BME280;46340;53.148;8.204;2022-10-26T08:01:22;101428.09;;;9.49;100.00
50133;BME280;46340;53.148;8.204;2022-10-26T08:03:50;101427.13;;;9.63;100.00
50133;BME280;46340;53.148;8.204;2022-10-26T08:06:15;101422.09;;;9.65;100.00
50133;BME280;46340;53.148;8.204;2022-10-26T08:08:41;101431.03;;;9.79;100.00
50133;BME280;46340;53.148;8.204;2022-10-26T08:11:06;101431.88;;;9.79;100.00
50133;BME280;46340;53.148;8.204;2022-10-26T08:13:31;101433.78;;;9.96;100.00
50133;BME280;46340;53.148;8.204;2022-10-26T08:16:00;101428.94;;;10.02;100.00
50133;BME280;46340;53.148;8.204;2022-10-26T08:18:27;101434.13;;;10.12;100.00
50133;BME280;46340;53.148;8.204;2022-10-26T08:20:52;101428.75;;;10.16;100.00
50133;BME280;46340;53.148;8.204;2022-10-26T08:23:18;101431.81;;;10.23;100.00
50133;BME280;46340;53.148;8.204;2022-10-26T08:25:43;101439.81;;;10.33;100.00
50133;BME280;46340;53.148;8.204;2022-10-26T08:28:08;101445.31;;;10.42;100.00
50133;BME280;46340;53.148;8.204;2022-10-26T08:30:34;101435.03;;;10.51;100.00
50133;BME280;46340;53.148;8.204;2022-10-26T08:33:03;101446.06;;;10.60;100.00
50133;BME280;46340;53.148;8.204;2022-10-26T08:35:30;101441.53;;;10.64;100.00
50133;BME280;46340;53.148;8.204;2022-10-26T08:37:56;101441.66;;;10.68;100.00
50133;BME280;46340;53.148;8.204;2022-10-26T08:40:29;101440.00;;;10.76;100.00
50133;BME280;46340;53.148;8.204;2022-10-26T08:42:57;101430.06;;;10.83;100.00
50133;BME280;46340;53.148;8.204;2022-10-26T08:45:29;101431.97;;;10.91;100.00
50133;BME280;46340;53.148;8.204;2022-10-26T08:48:00;101423.16;;;10.98;100.00
50133;BME280;46340;53.148;8.204;2022-10-26T08:50:30;101402.75;;;10.90;100.00
50133;BME280;46340;53.148;8.204;2022-10-26T08:53:07;101419.56;;;11.06;100.00
50133;BME280;46340;53.148;8.204;2022-10-26T08:55:54;101420.03;;;11.08;100.00
50133;BME280;46340;53.148;8.204;2022-10-26T08:58:27;101420.13;;;11.21;100.00
50133;BME280;46340;53.148;8.204;2022-10-26T09:01:00;101421.72;;;11.31;100.00
50133;BME280;46340;53.148;8.204;2022-10-26T09:03:27;101416.88;;;11.48;100.00
50133;BME280;46340;53.148;8.204;2022-10-26T09:06:06;101411.28;;;11.57;100.00
50133;BME280;46340;53.148;8.204;2022-10-26T09:11:19;101408.53;;;11.99;100.00
50133;BME280;46340;53.148;8.204;2022-10-26T09:14:17;101405.94;;;12.15;100.00
50133;BME280;46340;53.148;8.204;2022-10-26T09:22:10;101382.03;;;12.56;100.00
50133;BME280;46340;53.148;8.204;2022-10-26T09:24:47;101386.81;;;12.81;100.00
50133;BME280;46340;53.148;8.204;2022-10-26T09:27:27;101379.97;;;12.90;100.00
50133;BME280;46340;53.148;8.204;2022-10-26T09:29:54;101377.31;;;13.06;100.00
50133;BME280;46340;53.148;8.204;2022-10-26T09:32:29;101380.19;;;13.22;100.00
50133;BME280;46340;53.148;8.204;2022-10-26T09:35:02;101377.88;;;13.37;100.00
50133;BME280;46340;53.148;8.204;2022-10-26T09:37:36;101382.50;;;13.45;100.00
50133;BME280;46340;53.148;8.204;2022-10-26T09:45:40;101386.94;;;13.74;100.00
50133;BME280;46340;53.148;8.204;2022-10-26T09:51:08;101384.69;;;14.08;100.00
50133;BME280;46340;53.148;8.204;2022-10-26T09:53:35;101391.09;;;14.24;100.00
50133;BME280;46340;53.148;8.204;2022-10-26T09:56:03;101390.94;;;14.33;100.00
50133;BME280;46340;53.148;8.204;2022-10-26T09:58:31;101401.53;;;14.43;100.00
50133;BME280;46340;53.148;8.204;2022-10-26T10:01:04;101399.47;;;14.56;100.00
50133;BME280;46340;53.148;8.204;2022-10-26T10:03:30;101400.91;;;14.50;100.00
50133;BME280;46340;53.148;8.204;2022-10-26T10:08:42;101405.59;;;14.78;100.00
50133;BME280;46340;53.148;8.204;2022-10-26T10:11:11;101395.28;;;14.78;100.00
50133;BME280;46340;53.148;8.204;2022-10-26T10:13:42;101402.47;;;14.79;100.00
50133;BME280;46340;53.148;8.204;2022-10-26T10:16:18;101412.69;;;14.75;100.00
50133;BME280;46340;53.148;8.204;2022-10-26T10:18:52;101413.22;;;14.65;100.00
50133;BME280;46340;53.148;8.204;2022-10-26T10:21:19;101418.69;;;14.61;100.00
50133;BME280;46340;53.148;8.204;2022-10-26T10:23:49;101419.47;;;14.62;100.00
50133;BME280;46340;53.148;8.204;2022-10-26T10:26:16;101420.75;;;14.64;100.00
50133;BME280;46340;53.148;8.204;2022-10-26T10:28:42;101421.56;;;14.65;100.00
50133;BME280;46340;53.148;8.204;2022-10-26T10:31:20;101419.22;;;14.67;100.00
50133;BME280;46340;53.148;8.204;2022-10-26T10:33:47;101418.06;;;14.68;100.00
50133;BME280;46340;53.148;8.204;2022-10-26T10:36:17;101426.56;;;14.75;100.00
50133;BME280;46340;53.148;8.204;2022-10-26T10:38:46;101431.97;;;14.84;100.00
50133;BME280;46340;53.148;8.204;2022-10-26T10:41:14;101432.41;;;14.86;100.00
50133;BME280;46340;53.148;8.204;2022-10-26T10:43:45;101434.81;;;14.88;100.00
50133;BME280;46340;53.148;8.204;2022-10-26T10:46:25;101437.34;;;14.93;100.00
50133;BME280;46340;53.148;8.204;2022-10-26T10:48:53;101449.09;;;15.02;100.00
50133;BME280;46340;53.148;8.204;2022-10-26T10:51:25;101441.19;;;15.04;100.00
50133;BME280;46340;53.148;8.204;2022-10-26T10:53:54;101448.66;;;15.16;100.00
50133;BME280;46340;53.148;8.204;2022-10-26T11:01:49;101432.31;;;15.50;100.00
50133;BME280;46340;53.148;8.204;2022-10-26T11:07:21;101433.97;;;15.70;100.00
50133;BME280;46340;53.148;8.204;2022-10-26T11:09:49;101430.34;;;15.86;100.00
50133;BME280;46340;53.148;8.204;2022-10-26T11:12:20;101429.91;;;16.03;100.00
50133;BME280;46340;53.148;8.204;2022-10-26T11:14:57;101432.41;;;16.08;100.00
50133;BME280;46340;53.148;8.204;2022-10-26T11:17:29;101437.75;;;15.97;100.00
50133;BME280;46340;53.148;8.204;2022-10-26T11:19:59;101436.94;;;15.97;100.00
50133;BME280;46340;53.148;8.204;2022-10-26T11:22:28;101441.13;;;16.07;100.00
50133;BME280;46340;53.148;8.204;2022-10-26T11:25:02;101436.56;;;16.38;100.00
50133;BME280;46340;53.148;8.204;2022-10-26T11:27:38;101437.28;;;16.77;100.00
50133;BME280;46340;53.148;8.204;2022-10-26T11:30:19;101434.38;;;16.93;100.00
50133;BME280;46340;53.148;8.204;2022-10-26T11:33:03;101431.59;;;17.20;100.00
50133;BME280;46340;53.148;8.204;2022-10-26T11:36:25;101437.09;;;17.39;100.00
50133;BME280;46340;53.148;8.204;2022-10-26T11:41:19;101435.94;;;17.71;100.00
50133;BME280;46340;53.148;8.204;2022-10-26T11:43:53;101432.22;;;17.90;100.00
50133;BME280;46340;53.148;8.204;2022-10-26T11:46:41;101430.03;;;18.10;100.00
50133;BME280;46340;53.148;8.204;2022-10-26T11:57:28;101425.66;;;18.87;100.00
50133;BME280;46340;53.148;8.204;2022-10-26T12:00:00;101430.69;;;19.15;100.00
50133;BME280;46340;53.148;8.204;2022-10-26T12:02:29;101432.84;;;19.40;100.00
50133;BME280;46340;53.148;8.204;2022-10-26T12:07:34;101422.63;;;19.69;100.00
50133;BME280;46340;53.148;8.204;2022-10-26T12:10:03;101424.50;;;19.47;100.00
50133;BME280;46340;53.148;8.204;2022-10-26T12:12:45;101436.63;;;19.07;100.00
50133;BME280;46340;53.148;8.204;2022-10-26T12:18:05;101425.50;;;18.73;100.00
50133;BME280;46340;53.148;8.204;2022-10-26T12:23:14;101419.44;;;18.64;100.00
50133;BME280;46340;53.148;8.204;2022-10-26T12:25:40;101419.81;;;18.58;100.00
50133;BME280;46340;53.148;8.204;2022-10-26T12:28:16;101422.75;;;18.35;100.00
50133;BME280;46340;53.148;8.204;2022-10-26T12:34:02;101428.34;;;18.35;100.00
50133;BME280;46340;53.148;8.204;2022-10-26T12:39:31;101425.75;;;19.57;100.00
50133;BME280;46340;53.148;8.204;2022-10-26T12:44:30;101424.53;;;20.67;100.00
50133;BME280;46340;53.148;8.204;2022-10-26T12:46:58;101421.72;;;21.14;100.00
50133;BME280;46340;53.148;8.204;2022-10-26T12:52:25;101417.31;;;21.20;100.00
50133;BME280;46340;53.148;8.204;2022-10-26T12:55:02;101427.25;;;21.72;100.00
50133;BME280;46340;53.148;8.204;2022-10-26T13:00:10;101432.81;;;21.90;100.00
50133;BME280;46340;53.148;8.204;2022-10-26T13:02:44;101432.28;;;22.13;100.00
50133;BME280;46340;53.148;8.204;2022-10-26T13:08:02;101433.47;;;23.69;100.00
50133;BME280;46340;53.148;8.204;2022-10-26T13:10:31;101440.19;;;24.13;100.00
50133;BME280;46340;53.148;8.204;2022-10-26T13:12:57;101439.88;;;24.08;100.00
50133;BME280;46340;53.148;8.204;2022-10-26T13:15:26;101443.50;;;24.35;100.00
50133;BME280;46340;53.148;8.204;2022-10-26T13:18:00;101441.88;;;24.65;100.00
50133;BME280;46340;53.148;8.204;2022-10-26T13:20:51;101438.59;;;24.94;100.00
50133;BME280;46340;53.148;8.204;2022-10-26T13:23:26;101440.44;;;25.04;100.00
50133;BME280;46340;53.148;8.204;2022-10-26T13:26:02;101452.06;;;25.10;100.00
50133;BME280;46340;53.148;8.204;2022-10-26T13:30:58;101455.66;;;24.32;100.00
50133;BME280;46340;53.148;8.204;2022-10-26T13:33:24;101448.94;;;24.50;100.00
50133;BME280;46340;53.148;8.204;2022-10-26T13:35:57;101442.50;;;24.49;100.00
50133;BME280;46340;53.148;8.204;2022-10-26T13:38:24;101434.72;;;24.84;100.00
50133;BME280;46340;53.148;8.204;2022-10-26T13:40:58;101449.34;;;23.90;100.00
50133;BME280;46340;53.148;8.204;2022-10-26T13:43:30;101449.22;;;24.01;100.00
50133;BME280;46340;53.148;8.204;2022-10-26T13:46:00;101457.09;;;23.79;100.00
50133;BME280;46340;53.148;8.204;2022-10-26T13:48:29;101456.50;;;23.64;100.00
50133;BME280;46340;53.148;8.204;2022-10-26T13:51:02;101465.44;;;23.93;100.00
50133;BME280;46340;53.148;8.204;2022-10-26T13:56:15;101467.75;;;23.26;100.00
50133;BME280;46340;53.148;8.204;2022-10-26T13:59:02;101479.34;;;23.32;100.00
50133;BME280;46340;53.148;8.204;2022-10-26T14:01:30;101473.50;;;23.53;100.00
50133;BME280;46340;53.148;8.204;2022-10-26T14:03:56;101468.97;;;23.63;100.00
50133;BME280;46340;53.148;8.204;2022-10-26T14:08:47;101473.34;;;22.73;100.00
50133;BME280;46340;53.148;8.204;2022-10-26T14:11:16;101466.59;;;22.64;100.00
50133;BME280;46340;53.148;8.204;2022-10-26T14:13:44;101464.00;;;22.87;100.00
50133;BME280;46340;53.148;8.204;2022-10-26T14:16:12;101467.31;;;22.75;100.00
50133;BME280;46340;53.148;8.204;2022-10-26T14:18:43;101468.06;;;22.83;100.00
50133;BME280;46340;53.148;8.204;2022-10-26T14:21:18;101474.25;;;22.63;100.00
50133;BME280;46340;53.148;8.204;2022-10-26T14:23:58;101468.75;;;22.38;100.00
50133;BME280;46340;53.148;8.204;2022-10-26T14:26:28;101467.56;;;22.32;100.00
50133;BME280;46340;53.148;8.204;2022-10-26T14:29:02;101469.41;;;22.64;100.00
50133;BME280;46340;53.148;8.204;2022-10-26T14:31:28;101471.34;;;22.74;100.00
50133;BME280;46340;53.148;8.204;2022-10-26T14:33:55;101478.19;;;22.73;100.00
50133;BME280;46340;53.148;8.204;2022-10-26T14:36:25;101480.47;;;22.29;100.00
50133;BME280;46340;53.148;8.204;2022-10-26T14:38:59;101482.25;;;21.73;100.00
50133;BME280;46340;53.148;8.204;2022-10-26T14:41:27;101473.88;;;21.22;100.00
50133;BME280;46340;53.148;8.204;2022-10-26T14:43:54;101481.09;;;20.98;100.00